Time,TemperatureF,DewpointF,PressureIn,WindDirection,WindDirectionDegrees,WindSpeedMPH,WindSpeedGustMPH,Humidity,HourlyPrecipIn,Conditions,Clouds,dailyrainin,SoftwareType,DateUTC
2013-02-02 00:01:00,28.1,-1.6,29.94,ESE,113,0.0,1.1,23,0.00,,,0.00,WSDL version 420,2013-02-02 05:01:00,
2013-02-02 00:04:00,27.8,-1.9,29.94,ESE,113,0.0,0.9,23,0.00,,,0.00,WSDL version 420,2013-02-02 05:04:00,
2013-02-02 00:10:00,27.9,-1.8,29.94,ESE,113,0.4,2.0,23,0.00,,,0.00,WSDL version 420,2013-02-02 05:10:00,
2013-02-02 00:16:00,27.7,-1.9,29.91,ESE,113,0.7,2.0,23,0.00,,,0.00,WSDL version 420,2013-02-02 05:16:00,
2013-02-02 00:22:00,27.5,-2.1,29.91,ESE,113,0.0,1.6,23,0.00,,,0.00,WSDL version 420,2013-02-02 05:22:00,
2013-02-02 00:28:00,27.0,-2.6,29.94,ESE,113,1.1,1.3,23,0.00,,,0.00,WSDL version 420,2013-02-02 05:28:00,
2013-02-02 00:34:00,27.0,-2.6,29.94,ESE,113,0.0,1.3,23,0.00,,,0.00,WSDL version 420,2013-02-02 05:34:00,
2013-02-02 00:40:00,26.9,-2.6,29.94,ESE,113,1.4,2.0,23,0.00,,,0.00,WSDL version 420,2013-02-02 05:40:00,
2013-02-02 00:46:00,26.8,-2.7,29.91,ESE,113,0.0,2.0,23,0.00,,,0.00,WSDL version 420,2013-02-02 05:46:00,
2013-02-02 00:52:00,27.1,-2.5,29.91,ESE,113,0.6,2.2,23,0.00,,,0.00,WSDL version 420,2013-02-02 05:52:00,
2013-02-02 00:58:00,27.0,-2.6,29.91,ESE,113,0.0,2.2,23,0.00,,,0.00,WSDL version 420,2013-02-02 05:58:00,
2013-02-02 01:04:00,27.0,-2.6,29.91,ESE,113,0.0,1.1,23,0.00,,,0.00,WSDL version 420,2013-02-02 06:04:00,
2013-02-02 01:10:00,26.8,-2.7,29.91,ESE,113,0.4,1.1,23,0.00,,,0.00,WSDL version 420,2013-02-02 06:10:00,
2013-02-02 01:16:00,26.8,-2.7,29.91,ESE,113,0.4,2.0,23,0.00,,,0.00,WSDL version 420,2013-02-02 06:16:00,
2013-02-02 01:22:00,26.8,-2.7,29.91,ESE,113,0.5,2.0,23,0.00,,,0.00,WSDL version 420,2013-02-02 06:22:00,
2013-02-02 01:28:00,26.8,-2.7,29.88,ESE,113,1.2,2.2,23,0.00,,,0.00,WSDL version 420,2013-02-02 06:28:00,
2013-02-02 01:34:00,26.8,-2.7,29.88,ESE,113,2.4,2.7,23,0.00,,,0.00,WSDL version 420,2013-02-02 06:34:00,
2013-02-02 01:40:00,26.9,-2.7,29.88,ESE,113,2.4,2.9,23,0.00,,,0.00,WSDL version 420,2013-02-02 06:40:00,
2013-02-02 01:46:00,27.0,-2.6,29.88,ESE,113,1.0,2.9,23,0.00,,,0.00,WSDL version 420,2013-02-02 06:46:00,
2013-02-02 01:52:00,27.1,-2.5,29.88,ESE,113,1.1,2.2,23,0.00,,,0.00,WSDL version 420,2013-02-02 06:52:00,
2013-02-02 01:58:00,27.1,-2.4,29.88,ESE,113,0.6,2.7,23,0.00,,,0.00,WSDL version 420,2013-02-02 06:58:00,
2013-02-02 02:04:00,27.1,-2.4,29.88,ESE,113,1.8,3.4,23,0.00,,,0.00,WSDL version 420,2013-02-02 07:04:00,
2013-02-02 02:10:00,27.3,-2.3,29.88,ESE,113,2.2,3.4,23,0.00,,,0.00,WSDL version 420,2013-02-02 07:10:00,
2013-02-02 02:18:00,27.5,-2.1,29.85,ESE,113,2.3,2.7,23,0.00,,,0.00,WSDL version 420,2013-02-02 07:18:00,
2013-02-02 02:24:00,27.5,-2.1,29.85,ESE,113,2.5,2.9,23,0.00,,,0.00,WSDL version 420,2013-02-02 07:24:00,
2013-02-02 02:27:00,27.5,-2.1,29.88,ESE,113,1.7,2.9,23,0.00,,,0.00,WSDL version 420,2013-02-02 07:27:00,
2013-02-02 02:33:00,27.7,-2.0,29.88,SSE,158,1.9,3.1,23,0.00,,,0.00,WSDL version 420,2013-02-02 07:33:00,
2013-02-02 02:39:00,27.7,-2.0,29.88,SSE,158,0.0,3.1,23,0.00,,,0.00,WSDL version 420,2013-02-02 07:39:00,
2013-02-02 02:45:00,27.7,-2.0,29.85,SSE,158,0.3,2.5,23,0.00,,,0.00,WSDL version 420,2013-02-02 07:45:00,
2013-02-02 02:51:00,27.8,-1.9,29.85,SSE,158,1.6,2.5,23,0.00,,,0.00,WSDL version 420,2013-02-02 07:51:00,
2013-02-02 02:57:00,27.9,-1.8,29.85,SSE,158,1.5,2.7,23,0.00,,,0.00,WSDL version 420,2013-02-02 07:57:00,
2013-02-02 03:06:00,28.1,-1.6,29.85,SSE,158,1.3,2.7,23,0.00,,,0.00,WSDL version 420,2013-02-02 08:06:00,
2013-02-02 03:12:00,28.4,-1.4,29.85,SSE,158,1.6,2.5,23,0.00,,,0.00,WSDL version 420,2013-02-02 08:12:00,
2013-02-02 03:18:00,28.6,-1.2,29.85,SSE,158,2.2,2.7,23,0.00,,,0.00,WSDL version 420,2013-02-02 08:18:00,
2013-02-02 03:24:00,28.6,-1.1,29.85,SSE,158,2.1,2.9,23,0.00,,,0.00,WSDL version 420,2013-02-02 08:24:00,
2013-02-02 03:30:00,28.8,-1.0,29.85,SSE,158,1.2,2.9,23,0.00,,,0.00,WSDL version 420,2013-02-02 08:30:00,
2013-02-02 03:36:00,29.0,-0.8,29.85,SSE,158,1.0,2.0,23,0.00,,,0.00,WSDL version 420,2013-02-02 08:36:00,
2013-02-02 03:42:00,29.1,-0.7,29.85,SSE,158,0.0,1.6,23,0.00,,,0.00,WSDL version 420,2013-02-02 08:42:00,
2013-02-02 03:48:00,29.1,-0.7,29.85,SSE,158,0.0,0.0,23,0.00,,,0.00,WSDL version 420,2013-02-02 08:48:00,
2013-02-02 03:54:00,29.0,0.8,29.85,SSE,158,0.0,1.3,25,0.00,,,0.00,WSDL version 420,2013-02-02 08:54:00,
2013-02-02 04:00:00,28.9,0.7,29.85,SSE,158,0.0,1.3,25,0.00,,,0.00,WSDL version 420,2013-02-02 09:00:00,
2013-02-02 04:06:00,28.9,0.7,29.85,SSE,158,0.0,1.3,25,0.00,,,0.00,WSDL version 420,2013-02-02 09:06:00,
2013-02-02 04:12:00,28.9,0.7,29.85,SSE,158,0.0,0.0,25,0.00,,,0.00,WSDL version 420,2013-02-02 09:12:00,
2013-02-02 04:18:00,28.9,0.7,29.85,SSE,158,0.0,0.0,25,0.00,,,0.00,WSDL version 420,2013-02-02 09:18:00,
2013-02-02 04:24:00,28.9,2.9,29.85,SSE,158,0.0,0.0,28,0.00,,,0.00,WSDL version 420,2013-02-02 09:24:00,
2013-02-02 04:30:00,28.8,2.8,29.85,SSE,158,0.0,0.0,28,0.00,,,0.00,WSDL version 420,2013-02-02 09:30:00,
2013-02-02 04:36:00,28.6,0.4,29.85,SSE,158,0.0,0.0,25,0.00,,,0.00,WSDL version 420,2013-02-02 09:36:00,
2013-02-02 04:42:00,28.6,0.5,29.85,SSE,158,0.0,0.0,25,0.00,,,0.00,WSDL version 420,2013-02-02 09:42:00,
2013-02-02 04:48:00,28.8,0.6,29.85,SSE,158,0.0,0.0,25,0.00,,,0.00,WSDL version 420,2013-02-02 09:48:00,
2013-02-02 04:54:00,28.9,1.4,29.85,SSE,158,0.0,0.0,27,0.00,,,0.00,WSDL version 420,2013-02-02 09:54:00,
2013-02-02 05:00:00,28.8,0.6,29.85,SSE,158,0.0,0.0,25,0.00,,,0.00,WSDL version 420,2013-02-02 10:00:00,
2013-02-02 05:06:00,28.9,1.2,29.85,SSE,158,0.0,0.0,28,0.00,,,0.00,WSDL version 420,2013-02-02 10:06:00,
2013-02-02 05:12:00,28.9,2.9,29.85,SSE,158,0.0,0.0,28,0.00,,,0.00,WSDL version 420,2013-02-02 10:12:00,
2013-02-02 05:18:00,29.0,3.2,29.85,SSE,158,1.4,2.0,30,0.00,,,0.00,WSDL version 420,2013-02-02 10:18:00,
2013-02-02 05:24:00,29.1,3.1,29.85,SSE,158,0.0,2.0,28,0.00,,,0.00,WSDL version 420,2013-02-02 10:24:00,
2013-02-02 05:30:00,29.3,4.3,29.85,SSE,158,0.0,1.3,30,0.00,,,0.00,WSDL version 420,2013-02-02 10:30:00,
2013-02-02 05:36:00,29.3,4.7,29.85,SSE,158,0.4,1.1,30,0.00,,,0.00,WSDL version 420,2013-02-02 10:36:00,
2013-02-02 05:42:00,29.5,5.0,29.85,SW,225,1.6,2.7,31,0.00,,,0.00,WSDL version 420,2013-02-02 10:42:00,
2013-02-02 05:48:00,29.6,5.5,29.85,West,270,0.3,2.7,31,0.00,,,0.00,WSDL version 420,2013-02-02 10:48:00,
2013-02-02 05:54:00,29.7,4.9,29.85,West,270,0.5,1.3,30,0.00,,,0.00,WSDL version 420,2013-02-02 10:54:00,
2013-02-02 06:00:00,29.8,5.5,29.85,West,270,0.4,1.6,31,0.00,,,0.00,WSDL version 420,2013-02-02 11:00:00,
2013-02-02 06:06:00,30.0,5.9,29.85,West,270,1.2,2.0,31,0.00,,,0.00,WSDL version 420,2013-02-02 11:06:00,
2013-02-02 06:12:00,30.0,5.9,29.85,West,270,0.0,2.0,31,0.00,,,0.00,WSDL version 420,2013-02-02 11:12:00,
2013-02-02 06:18:00,30.0,5.9,29.85,West,270,0.0,0.0,31,0.00,,,0.00,WSDL version 420,2013-02-02 11:18:00,
2013-02-02 06:24:00,30.0,5.9,29.85,West,270,0.0,1.3,31,0.00,,,0.00,WSDL version 420,2013-02-02 11:24:00,
2013-02-02 06:30:00,30.0,5.9,29.85,West,270,0.9,1.3,31,0.00,,,0.00,WSDL version 420,2013-02-02 11:30:00,
2013-02-02 06:36:00,30.1,5.9,29.85,West,270,0.0,1.1,31,0.00,,,0.00,WSDL version 420,2013-02-02 11:36:00,
2013-02-02 06:42:00,30.0,5.9,29.85,West,270,1.2,2.5,31,0.00,,,0.00,WSDL version 420,2013-02-02 11:42:00,
2013-02-02 06:48:00,30.1,6.3,29.85,West,270,0.0,2.5,31,0.00,,,0.00,WSDL version 420,2013-02-02 11:48:00,
2013-02-02 06:54:00,30.1,6.6,29.85,West,270,1.3,2.2,32,0.00,,,0.00,WSDL version 420,2013-02-02 11:54:00,
2013-02-02 07:00:00,30.2,6.7,29.83,West,270,0.0,2.2,32,0.00,,,0.00,WSDL version 420,2013-02-02 12:00:00,
2013-02-02 07:06:00,30.2,6.7,29.83,West,270,0.0,0.0,32,0.00,,,0.00,WSDL version 420,2013-02-02 12:06:00,
2013-02-02 07:12:00,30.2,6.7,29.83,West,270,0.0,0.0,32,0.00,,,0.00,WSDL version 420,2013-02-02 12:12:00,
2013-02-02 07:18:00,30.2,6.7,29.83,West,270,0.0,1.3,32,0.00,,,0.00,WSDL version 420,2013-02-02 12:18:00,
2013-02-02 07:24:00,30.2,6.7,29.83,West,270,0.0,1.3,32,0.00,,,0.00,WSDL version 420,2013-02-02 12:24:00,
2013-02-02 07:30:00,30.4,6.8,29.83,West,270,0.0,1.1,32,0.00,,,0.00,WSDL version 420,2013-02-02 12:30:00,
2013-02-02 07:36:00,30.4,6.5,29.83,West,270,0.0,1.1,32,0.00,,,0.00,WSDL version 420,2013-02-02 12:36:00,
2013-02-02 07:42:00,30.4,6.8,29.85,West,270,0.0,1.1,32,0.00,,,0.00,WSDL version 420,2013-02-02 12:42:00,
2013-02-02 07:48:00,30.5,6.8,29.85,West,270,0.0,0.0,32,0.00,,,0.00,WSDL version 420,2013-02-02 12:48:00,
2013-02-02 07:54:00,30.6,6.4,29.85,West,270,0.0,0.0,31,0.00,,,0.00,WSDL version 420,2013-02-02 12:54:00,
2013-02-02 08:00:00,30.6,6.6,29.85,West,270,0.5,1.6,32,0.00,,,0.00,WSDL version 420,2013-02-02 13:00:00,
2013-02-02 08:06:00,30.7,7.1,29.85,West,270,1.2,2.5,32,0.00,,,0.00,WSDL version 420,2013-02-02 13:06:00,
2013-02-02 08:12:00,30.8,7.2,29.83,SE,135,0.9,2.7,32,0.00,,,0.00,WSDL version 420,2013-02-02 13:12:00,
2013-02-02 08:18:00,30.9,7.3,29.83,SE,135,1.3,2.5,32,0.00,,,0.00,WSDL version 420,2013-02-02 13:18:00,
2013-02-02 08:24:00,31.1,7.4,29.83,SE,135,1.2,2.5,32,0.00,,,0.00,WSDL version 420,2013-02-02 13:24:00,
2013-02-02 08:30:00,31.1,7.5,29.83,SE,135,2.1,2.7,32,0.00,,,0.00,WSDL version 420,2013-02-02 13:30:00,
2013-02-02 08:36:00,31.3,7.6,29.83,SE,135,2.4,3.1,32,0.00,,,0.00,WSDL version 420,2013-02-02 13:36:00,
2013-02-02 08:42:00,31.3,7.7,29.83,SE,135,0.1,3.1,32,0.00,,,0.00,WSDL version 420,2013-02-02 13:42:00,
2013-02-02 08:48:00,31.5,7.8,29.83,SE,135,1.4,2.2,32,0.00,,,0.00,WSDL version 420,2013-02-02 13:48:00,
2013-02-02 08:54:00,31.5,7.8,29.83,SE,135,1.8,2.7,32,0.00,,,0.00,WSDL version 420,2013-02-02 13:54:00,
2013-02-02 09:00:00,31.4,7.8,29.83,SE,135,1.6,2.7,32,0.00,,,0.00,WSDL version 420,2013-02-02 14:00:00,
2013-02-02 09:06:00,31.5,7.8,29.83,SE,135,2.3,3.1,32,0.00,,,0.00,WSDL version 420,2013-02-02 14:06:00,
2013-02-02 09:12:00,31.5,7.8,29.83,SE,135,1.3,3.8,32,0.00,,,0.00,WSDL version 420,2013-02-02 14:12:00,
2013-02-02 09:18:00,31.5,7.8,29.83,SSE,158,2.5,4.3,32,0.00,,,0.00,WSDL version 420,2013-02-02 14:18:00,
2013-02-02 09:24:00,31.7,8.1,29.83,SSE,164,3.0,3.8,32,0.00,,,0.00,WSDL version 420,2013-02-02 14:24:00,
2013-02-02 09:30:00,32.1,7.0,29.83,SSE,148,3.6,4.3,32,0.00,,,0.00,WSDL version 420,2013-02-02 14:30:00,
2013-02-02 09:36:00,32.4,5.8,29.83,SE,141,3.5,5.6,32,0.00,,,0.00,WSDL version 420,2013-02-02 14:36:00,
2013-02-02 09:42:00,32.7,6.1,29.83,SSE,158,3.7,4.9,32,0.00,,,0.00,WSDL version 420,2013-02-02 14:42:00,
2013-02-02 09:48:00,33.0,6.4,29.83,SSE,154,3.5,5.4,32,0.00,,,0.00,WSDL version 420,2013-02-02 14:48:00,
2013-02-02 09:54:00,33.4,6.7,29.83,SSE,158,4.0,6.3,32,0.00,,,0.00,WSDL version 420,2013-02-02 14:54:00,
2013-02-02 10:00:00,33.8,7.0,29.80,SE,138,3.7,5.8,32,0.00,,,0.00,WSDL version 420,2013-02-02 15:00:00,
2013-02-02 10:06:00,34.3,6.9,29.80,SSW,203,2.5,4.3,32,0.00,,,0.00,WSDL version 420,2013-02-02 15:06:00,
2013-02-02 10:12:00,34.8,7.4,29.80,South,183,3.0,5.8,31,0.00,,,0.00,WSDL version 420,2013-02-02 15:12:00,
2013-02-02 10:18:00,35.2,7.6,29.80,South,180,2.1,5.8,31,0.00,,,0.00,WSDL version 420,2013-02-02 15:18:00,
2013-02-02 10:24:00,35.7,7.3,29.80,SSE,167,5.8,8.1,30,0.00,,,0.00,WSDL version 420,2013-02-02 15:24:00,
2013-02-02 10:30:00,36.3,7.8,29.80,SSW,196,3.8,7.8,30,0.00,,,0.00,WSDL version 420,2013-02-02 15:30:00,
2013-02-02 10:36:00,37.2,8.5,29.80,SSW,211,4.1,6.5,30,0.00,,,0.00,WSDL version 420,2013-02-02 15:36:00,
2013-02-02 10:42:00,38.5,9.4,29.80,SSW,196,3.1,8.5,29,0.00,,,0.00,WSDL version 420,2013-02-02 15:42:00,
2013-02-02 10:48:00,39.5,9.8,29.80,SSW,199,2.7,8.5,29,0.00,,,0.00,WSDL version 420,2013-02-02 15:48:00,
2013-02-02 10:54:00,40.0,9.7,29.80,WSW,241,3.5,6.0,28,0.00,,,0.00,WSDL version 420,2013-02-02 15:54:00,
2013-02-02 11:00:00,40.4,9.9,29.80,SW,225,3.2,6.0,28,0.00,,,0.00,WSDL version 420,2013-02-02 16:00:00,
2013-02-02 11:06:00,40.6,9.0,29.80,SW,233,3.0,7.4,26,0.00,,,0.00,WSDL version 420,2013-02-02 16:06:00,
2013-02-02 11:12:00,40.9,8.7,29.80,SSW,196,2.9,6.3,26,0.00,,,0.00,WSDL version 420,2013-02-02 16:12:00,
2013-02-02 11:18:00,41.1,8.9,29.80,SSW,209,2.3,6.3,26,0.00,,,0.00,WSDL version 420,2013-02-02 16:18:00,
2013-02-02 11:24:00,41.4,9.0,29.80,WSW,244,3.6,7.2,26,0.00,,,0.00,WSDL version 420,2013-02-02 16:24:00,
2013-02-02 11:30:00,41.7,9.3,29.80,WSW,253,2.6,7.2,26,0.00,,,0.00,WSDL version 420,2013-02-02 16:30:00,
2013-02-02 11:36:00,41.9,9.5,29.80,WSW,244,4.7,7.8,26,0.00,,,0.00,WSDL version 420,2013-02-02 16:36:00,
2013-02-02 11:42:00,42.0,9.6,29.80,SW,215,2.4,7.8,26,0.00,,,0.00,WSDL version 420,2013-02-02 16:42:00,
2013-02-02 11:48:00,42.1,9.7,29.80,SSW,212,3.0,4.7,26,0.00,,,0.00,WSDL version 420,2013-02-02 16:48:00,
2013-02-02 11:54:00,42.1,9.7,29.80,South,184,2.6,4.7,26,0.00,,,0.00,WSDL version 420,2013-02-02 16:54:00,
2013-02-02 12:00:00,42.4,9.9,29.80,SSW,203,2.7,5.8,26,0.00,,,0.00,WSDL version 420,2013-02-02 17:00:00,
2013-02-02 12:06:00,42.5,10.0,29.80,SW,231,3.7,6.0,26,0.00,,,0.00,WSDL version 420,2013-02-02 17:06:00,
2013-02-02 12:12:00,42.5,10.0,29.80,WSW,248,6.6,10.3,26,0.00,,,0.00,WSDL version 420,2013-02-02 17:12:00,
2013-02-02 12:18:00,42.6,10.1,29.80,West,270,3.0,10.3,26,0.00,,,0.00,WSDL version 420,2013-02-02 17:18:00,
2013-02-02 12:24:00,42.7,9.8,29.80,West,266,2.9,6.3,25,0.00,,,0.00,WSDL version 420,2013-02-02 17:24:00,
2013-02-02 12:30:00,42.8,9.4,29.80,WSW,250,5.0,7.6,25,0.00,,,0.00,WSDL version 420,2013-02-02 17:30:00,
2013-02-02 12:36:00,42.9,9.5,29.80,West,259,3.2,7.6,25,0.00,,,0.00,WSDL version 420,2013-02-02 17:36:00,
2013-02-02 12:42:00,43.0,9.6,29.80,SW,236,3.9,8.5,25,0.00,,,0.00,WSDL version 420,2013-02-02 17:42:00,
2013-02-02 12:48:00,43.0,9.6,29.80,SW,231,3.7,8.5,25,0.00,,,0.00,WSDL version 420,2013-02-02 17:48:00,
2013-02-02 12:54:00,43.0,9.6,29.80,WNW,283,3.7,8.5,25,0.00,,,0.00,WSDL version 420,2013-02-02 17:54:00,
2013-02-02 13:00:00,43.0,9.6,29.80,West,276,4.8,10.3,25,0.00,,,0.00,WSDL version 420,2013-02-02 18:00:00,
2013-02-02 13:06:00,42.9,9.1,29.80,West,275,2.9,7.6,24,0.00,,,0.00,WSDL version 420,2013-02-02 18:06:00,
2013-02-02 13:12:00,42.8,9.0,29.80,WNW,283,3.6,8.5,25,0.00,,,0.00,WSDL version 420,2013-02-02 18:12:00,
2013-02-02 13:18:00,43.0,9.2,29.80,West,273,5.0,7.8,23,0.00,,,0.00,WSDL version 420,2013-02-02 18:18:00,
2013-02-02 13:24:00,43.0,7.7,29.80,WNW,298,3.6,7.8,23,0.00,,,0.00,WSDL version 420,2013-02-02 18:24:00,
2013-02-02 13:30:00,43.0,7.7,29.80,West,263,4.0,6.5,23,0.00,,,0.00,WSDL version 420,2013-02-02 18:30:00,
2013-02-02 13:36:00,42.9,7.6,29.80,WSW,257,4.8,6.3,23,0.00,,,0.00,WSDL version 420,2013-02-02 18:36:00,
2013-02-02 13:42:00,43.1,9.6,29.80,WNW,293,3.1,6.3,25,0.00,,,0.00,WSDL version 420,2013-02-02 18:42:00,
2013-02-02 13:48:00,43.3,9.2,29.80,West,267,5.6,7.2,23,0.00,,,0.00,WSDL version 420,2013-02-02 18:48:00,
2013-02-02 13:54:00,43.2,7.9,29.80,West,270,2.9,7.2,23,0.00,,,0.00,WSDL version 420,2013-02-02 18:54:00,
2013-02-02 14:00:00,43.6,8.8,29.80,WSW,255,3.1,7.2,25,0.00,,,0.00,WSDL version 420,2013-02-02 19:00:00,
2013-02-02 14:06:00,44.2,10.0,29.80,SW,233,2.3,4.9,25,0.00,,,0.00,WSDL version 420,2013-02-02 19:06:00,
2013-02-02 14:12:00,44.7,10.1,29.77,West,273,2.7,4.9,22,0.00,,,0.00,WSDL version 420,2013-02-02 19:12:00,
2013-02-02 14:18:00,44.7,8.1,29.77,West,267,3.5,5.4,22,0.00,,,0.00,WSDL version 420,2013-02-02 19:18:00,
2013-02-02 14:24:00,44.9,8.3,29.77,NW,304,3.6,5.6,22,0.00,,,0.00,WSDL version 420,2013-02-02 19:24:00,
2013-02-02 14:30:00,45.2,8.6,29.77,NW,308,3.0,4.9,22,0.00,,,0.00,WSDL version 420,2013-02-02 19:30:00,
2013-02-02 14:36:00,45.4,8.7,29.77,West,274,4.4,7.2,22,0.00,,,0.00,WSDL version 420,2013-02-02 19:36:00,
2013-02-02 14:42:00,45.4,8.8,29.80,West,270,3.6,6.3,22,0.00,,,0.00,WSDL version 420,2013-02-02 19:42:00,
2013-02-02 14:48:00,45.3,8.7,29.80,WNW,289,3.0,6.3,22,0.00,,,0.00,WSDL version 420,2013-02-02 19:48:00,
2013-02-02 14:54:00,45.3,8.7,29.80,WNW,285,3.8,6.5,22,0.00,,,0.00,WSDL version 420,2013-02-02 19:54:00,
2013-02-02 15:00:00,45.5,8.9,29.77,West,265,4.1,7.4,22,0.00,,,0.00,WSDL version 420,2013-02-02 20:00:00,
2013-02-02 15:06:00,45.5,8.9,29.77,WSW,252,2.5,7.4,22,0.00,,,0.00,WSDL version 420,2013-02-02 20:06:00,
2013-02-02 15:12:00,46.1,9.4,29.77,NW,315,2.0,4.3,22,0.00,,,0.00,WSDL version 420,2013-02-02 20:12:00,
2013-02-02 15:18:00,46.6,9.8,29.77,WNW,286,2.8,5.6,22,0.00,,,0.00,WSDL version 420,2013-02-02 20:18:00,
2013-02-02 15:24:00,47.1,10.2,29.77,WSW,248,3.2,5.6,22,0.00,,,0.00,WSDL version 420,2013-02-02 20:24:00,
2013-02-02 15:30:00,47.6,10.6,29.77,SW,231,1.8,4.9,22,0.00,,,0.00,WSDL version 420,2013-02-02 20:30:00,
2013-02-02 15:36:00,48.0,11.0,29.77,SW,230,0.5,4.9,22,0.00,,,0.00,WSDL version 420,2013-02-02 20:36:00,
2013-02-02 15:42:00,48.3,10.2,29.77,WNW,300,2.0,4.0,21,0.00,,,0.00,WSDL version 420,2013-02-02 20:42:00,
2013-02-02 15:48:00,48.6,10.4,29.77,West,270,3.9,7.2,21,0.00,,,0.00,WSDL version 420,2013-02-02 20:48:00,
2013-02-02 15:54:00,49.0,10.7,29.77,West,276,5.0,7.4,21,0.00,,,0.00,WSDL version 420,2013-02-02 20:54:00,
2013-02-02 16:00:00,49.4,11.1,29.77,West,263,4.8,7.4,21,0.00,,,0.00,WSDL version 420,2013-02-02 21:00:00,
2013-02-02 16:06:00,49.8,11.4,29.77,West,261,4.1,6.0,21,0.00,,,0.00,WSDL version 420,2013-02-02 21:06:00,
2013-02-02 16:12:00,50.2,11.7,29.77,West,279,4.3,6.7,21,0.00,,,0.00,WSDL version 420,2013-02-02 21:12:00,
2013-02-02 16:18:00,50.0,11.6,29.77,NW,315,3.2,6.9,21,0.00,,,0.00,WSDL version 420,2013-02-02 21:18:00,
2013-02-02 16:24:00,50.5,12.0,29.77,West,270,3.3,6.9,21,0.00,,,0.00,WSDL version 420,2013-02-02 21:24:00,
2013-02-02 16:30:00,51.2,12.6,29.77,WNW,293,4.3,7.2,21,0.00,,,0.00,WSDL version 420,2013-02-02 21:30:00,
2013-02-02 16:36:00,51.2,12.6,29.77,West,263,2.9,7.4,21,0.00,,,0.00,WSDL version 420,2013-02-02 21:36:00,
2013-02-02 16:42:00,51.0,12.4,29.80,WNW,289,5.1,7.4,21,0.00,,,0.00,WSDL version 420,2013-02-02 21:42:00,
2013-02-02 16:48:00,51.2,12.6,29.80,WSW,257,4.6,7.2,21,0.00,,,0.00,WSDL version 420,2013-02-02 21:48:00,
2013-02-02 16:54:00,52.0,13.3,29.80,WSW,255,3.7,6.5,21,0.00,,,0.00,WSDL version 420,2013-02-02 21:54:00,
2013-02-02 17:00:00,52.4,13.7,29.80,WNW,299,4.6,6.3,21,0.00,,,0.00,WSDL version 420,2013-02-02 22:00:00,
2013-02-02 17:06:00,52.7,13.9,29.80,WNW,285,3.2,6.3,21,0.00,,,0.00,WSDL version 420,2013-02-02 22:06:00,
2013-02-02 17:12:00,53.2,14.2,29.80,West,270,3.0,6.5,21,0.00,,,0.00,WSDL version 420,2013-02-02 22:12:00,
2013-02-02 17:18:00,53.9,13.7,29.80,WNW,298,3.0,4.3,20,0.00,,,0.00,WSDL version 420,2013-02-02 22:18:00,
2013-02-02 17:24:00,53.4,14.2,29.80,NW,315,2.6,4.3,21,0.00,,,0.00,WSDL version 420,2013-02-02 22:24:00,
2013-02-02 17:30:00,52.7,13.9,29.80,WNW,297,2.6,3.6,21,0.00,,,0.00,WSDL version 420,2013-02-02 22:30:00,
2013-02-02 17:36:00,52.1,13.3,29.80,WNW,297,2.6,4.0,21,0.00,,,0.00,WSDL version 420,2013-02-02 22:36:00,
2013-02-02 17:42:00,51.9,13.2,29.80,NW,315,0.7,3.1,21,0.00,,,0.00,WSDL version 420,2013-02-02 22:42:00,
2013-02-02 17:48:00,52.3,13.5,29.80,West,270,2.5,3.6,21,0.00,,,0.00,WSDL version 420,2013-02-02 22:48:00,
2013-02-02 17:54:00,52.3,13.5,29.80,West,270,1.6,4.3,21,0.00,,,0.00,WSDL version 420,2013-02-02 22:54:00,
2013-02-02 18:00:00,52.1,13.3,29.80,SW,225,1.1,4.3,21,0.00,,,0.00,WSDL version 420,2013-02-02 23:00:00,
2013-02-02 18:06:00,51.5,12.8,29.80,West,270,1.9,2.9,21,0.00,,,0.00,WSDL version 420,2013-02-02 23:06:00,
2013-02-02 18:12:00,50.3,11.8,29.80,West,270,1.9,2.9,21,0.00,,,0.00,WSDL version 420,2013-02-02 23:12:00,
2013-02-02 18:18:00,49.0,10.8,29.80,West,270,1.0,2.9,21,0.00,,,0.00,WSDL version 420,2013-02-02 23:18:00,
2013-02-02 18:24:00,48.3,10.5,29.80,West,270,0.4,2.9,22,0.00,,,0.00,WSDL version 420,2013-02-02 23:24:00,
2013-02-02 18:30:00,47.5,10.6,29.80,West,270,0.6,2.0,22,0.00,,,0.00,WSDL version 420,2013-02-02 23:30:00,
2013-02-02 18:36:00,46.8,10.0,29.80,West,270,1.3,2.5,22,0.00,,,0.00,WSDL version 420,2013-02-02 23:36:00,
2013-02-02 18:42:00,46.3,9.5,29.80,West,270,0.0,2.5,22,0.00,,,0.00,WSDL version 420,2013-02-02 23:42:00,
2013-02-02 18:48:00,45.7,9.0,29.80,West,270,1.7,2.2,22,0.00,,,0.00,WSDL version 420,2013-02-02 23:48:00,
2013-02-02 18:54:00,45.2,8.6,29.80,West,270,1.6,2.7,22,0.00,,,0.00,WSDL version 420,2013-02-02 23:54:00,
2013-02-02 19:00:00,44.7,8.2,29.80,West,270,1.4,2.2,22,0.00,,,0.00,WSDL version 420,2013-02-03 00:00:00,
2013-02-02 19:06:00,44.4,9.0,29.80,West,270,1.2,2.2,25,0.00,,,0.00,WSDL version 420,2013-02-03 00:06:00,
2013-02-02 19:12:00,44.0,10.4,29.80,West,270,1.3,2.5,25,0.00,,,0.00,WSDL version 420,2013-02-03 00:12:00,
2013-02-02 19:18:00,43.6,10.0,29.80,West,270,1.7,2.2,25,0.00,,,0.00,WSDL version 420,2013-02-03 00:18:00,
2013-02-02 19:24:00,43.0,9.6,29.80,West,270,1.8,2.2,25,0.00,,,0.00,WSDL version 420,2013-02-03 00:24:00,
2013-02-02 19:30:00,42.8,9.4,29.80,West,270,1.5,2.2,25,0.00,,,0.00,WSDL version 420,2013-02-03 00:30:00,
2013-02-02 19:36:00,42.7,10.2,29.80,West,270,1.1,2.0,28,0.00,,,0.00,WSDL version 420,2013-02-03 00:36:00,
2013-02-02 19:42:00,42.5,11.7,29.80,West,270,1.2,2.0,28,0.00,,,0.00,WSDL version 420,2013-02-03 00:42:00,
2013-02-02 19:48:00,42.3,11.5,29.80,West,270,2.0,2.2,28,0.00,,,0.00,WSDL version 420,2013-02-03 00:48:00,
2013-02-02 19:54:00,42.1,11.3,29.80,West,270,0.5,2.2,28,0.00,,,0.00,WSDL version 420,2013-02-03 00:54:00,
2013-02-02 20:00:00,41.9,11.1,29.80,West,270,1.6,2.2,28,0.00,,,0.00,WSDL version 420,2013-02-03 01:00:00,
2013-02-02 20:06:00,41.7,11.0,29.80,West,270,0.0,2.2,28,0.00,,,0.00,WSDL version 420,2013-02-03 01:06:00,
2013-02-02 20:12:00,41.4,10.8,29.80,West,270,0.0,1.3,28,0.00,,,0.00,WSDL version 420,2013-02-03 01:12:00,
2013-02-02 20:18:00,41.2,10.8,29.80,SSE,160,2.3,2.7,29,0.00,,,0.00,WSDL version 420,2013-02-03 01:18:00,
2013-02-02 20:24:00,41.2,11.2,29.80,SSE,158,1.8,2.9,28,0.00,,,0.00,WSDL version 420,2013-02-03 01:24:00,
2013-02-02 20:30:00,40.9,10.8,29.83,SSE,158,0.0,2.7,29,0.00,,,0.00,WSDL version 420,2013-02-03 01:30:00,
2013-02-02 20:36:00,40.8,11.0,29.83,SSE,158,1.1,2.0,29,0.00,,,0.00,WSDL version 420,2013-02-03 01:36:00,
2013-02-02 20:42:00,40.6,10.9,29.80,SSE,158,2.6,2.9,29,0.00,,,0.00,WSDL version 420,2013-02-03 01:42:00,
2013-02-02 20:48:00,40.6,10.8,29.80,SSE,158,2.5,3.1,29,0.00,,,0.00,WSDL version 420,2013-02-03 01:48:00,
2013-02-02 20:54:00,40.5,10.7,29.80,SSE,164,2.2,3.1,29,0.00,,,0.00,WSDL version 420,2013-02-03 01:54:00,
2013-02-02 21:00:00,40.5,10.7,29.80,SSE,158,2.5,3.4,29,0.00,,,0.00,WSDL version 420,2013-02-03 02:00:00,
2013-02-02 21:06:00,40.5,10.7,29.80,SSE,161,2.7,3.8,29,0.00,,,0.00,WSDL version 420,2013-02-03 02:06:00,
2013-02-02 21:12:00,40.6,10.8,29.80,SSE,158,2.1,3.8,29,0.00,,,0.00,WSDL version 420,2013-02-03 02:12:00,
2013-02-02 21:18:00,40.6,11.6,29.80,SSE,163,1.6,2.7,30,0.00,,,0.00,WSDL version 420,2013-02-03 02:18:00,
2013-02-02 21:24:00,40.5,11.5,29.80,South,180,1.5,2.7,30,0.00,,,0.00,WSDL version 420,2013-02-03 02:24:00,
2013-02-02 21:30:00,40.3,11.2,29.80,South,180,1.1,2.2,30,0.00,,,0.00,WSDL version 420,2013-02-03 02:30:00,
2013-02-02 21:36:00,39.7,10.8,29.80,WSW,248,0.0,2.2,30,0.00,,,0.00,WSDL version 420,2013-02-03 02:36:00,
2013-02-02 21:42:00,39.4,10.5,29.80,WSW,248,1.0,2.2,30,0.00,,,0.00,WSDL version 420,2013-02-03 02:42:00,
2013-02-02 21:48:00,39.1,10.3,29.80,WSW,248,0.0,2.2,30,0.00,,,0.00,WSDL version 420,2013-02-03 02:48:00,
2013-02-02 21:54:00,38.8,10.2,29.80,SW,220,1.2,2.5,31,0.00,,,0.00,WSDL version 420,2013-02-03 02:54:00,
2013-02-02 22:00:00,38.7,10.6,29.80,SW,225,1.3,3.1,31,0.00,,,0.00,WSDL version 420,2013-02-03 03:00:00,
2013-02-02 22:06:00,38.3,10.3,29.80,WSW,248,1.1,3.1,31,0.00,,,0.00,WSDL version 420,2013-02-03 03:06:00,
2013-02-02 22:12:00,37.9,9.9,29.80,WSW,248,0.0,1.6,31,0.00,,,0.00,WSDL version 420,2013-02-03 03:12:00,
2013-02-02 22:18:00,37.6,9.7,29.80,WSW,248,0.0,1.3,31,0.00,,,0.00,WSDL version 420,2013-02-03 03:18:00,
2013-02-02 22:24:00,37.4,9.8,29.80,WSW,248,0.0,1.3,32,0.00,,,0.00,WSDL version 420,2013-02-03 03:24:00,
2013-02-02 22:30:00,37.2,10.0,29.80,WSW,248,0.8,2.0,32,0.00,,,0.00,WSDL version 420,2013-02-03 03:30:00,
2013-02-02 22:36:00,36.9,10.2,29.80,WSW,248,0.0,2.0,33,0.00,,,0.00,WSDL version 420,2013-02-03 03:36:00,
2013-02-02 22:42:00,36.9,10.4,29.80,West,270,0.4,2.2,33,0.00,,,0.00,WSDL version 420,2013-02-03 03:42:00,
2013-02-02 22:48:00,36.9,10.4,29.80,West,270,1.0,2.5,33,0.00,,,0.00,WSDL version 420,2013-02-03 03:48:00,
2013-02-02 22:54:00,36.9,11.1,29.80,WSW,248,1.1,2.9,34,0.00,,,0.00,WSDL version 420,2013-02-03 03:54:00,
2013-02-02 23:00:00,37.0,11.2,29.80,WSW,248,0.4,2.9,34,0.00,,,0.00,WSDL version 420,2013-02-03 04:00:00,
2013-02-02 23:06:00,37.0,11.2,29.80,WSW,248,0.0,2.0,34,0.00,,,0.00,WSDL version 420,2013-02-03 04:06:00,
2013-02-02 23:12:00,36.8,11.1,29.80,WSW,248,1.2,2.0,34,0.00,,,0.00,WSDL version 420,2013-02-03 04:12:00,
2013-02-02 23:18:00,36.4,10.7,29.80,WSW,248,0.4,2.0,34,0.00,,,0.00,WSDL version 420,2013-02-03 04:18:00,
2013-02-02 23:24:00,36.1,10.5,29.80,WSW,248,0.1,1.3,34,0.00,,,0.00,WSDL version 420,2013-02-03 04:24:00,
2013-02-02 23:30:00,36.3,11.3,29.80,WSW,248,0.9,2.0,35,0.00,,,0.00,WSDL version 420,2013-02-03 04:30:00,
2013-02-02 23:36:00,36.4,11.3,29.80,WSW,248,0.6,2.0,34,0.00,,,0.00,WSDL version 420,2013-02-03 04:36:00,
2013-02-02 23:42:00,36.5,11.4,29.83,SW,225,1.1,2.5,35,0.00,,,0.00,WSDL version 420,2013-02-03 04:42:00,
2013-02-02 23:48:00,36.5,12.0,29.83,West,270,1.1,2.7,36,0.00,,,0.00,WSDL version 420,2013-02-03 04:48:00,
2013-02-02 23:54:00,36.4,11.8,29.83,West,270,0.0,2.7,36,0.00,,,0.00,WSDL version 420,2013-02-03 04:54:00,